sensor_id;sensor_type;location;lat;lon;timestamp;P1;durP1;ratioP1;P2;durP2;ratioP2
23670;SDS011;12012;51.998;7.614;2022-08-19T00:01:37;7.93;;;6.38;;
23670;SDS011;12012;51.998;7.614;2022-08-19T00:04:05;11.30;;;9.10;;
23670;SDS011;12012;51.998;7.614;2022-08-19T00:06:33;10.95;;;8.73;;
23670;SDS011;12012;51.998;7.614;2022-08-19T00:09:00;10.48;;;9.38;;
23670;SDS011;12012;51.998;7.614;2022-08-19T00:11:26;12.85;;;10.77;;
23670;SDS011;12012;51.998;7.614;2022-08-19T00:13:53;10.60;;;9.13;;
23670;SDS011;12012;51.998;7.614;2022-08-19T00:16:20;9.27;;;7.65;;
23670;SDS011;12012;51.998;7.614;2022-08-19T00:18:46;10.25;;;9.25;;
23670;SDS011;12012;51.998;7.614;2022-08-19T00:21:12;9.38;;;8.35;;
23670;SDS011;12012;51.998;7.614;2022-08-19T00:23:39;10.25;;;7.90;;
23670;SDS011;12012;51.998;7.614;2022-08-19T00:26:06;13.20;;;10.88;;
23670;SDS011;12012;51.998;7.614;2022-08-19T00:28:32;8.88;;;7.40;;
23670;SDS011;12012;51.998;7.614;2022-08-19T00:31:00;10.20;;;7.95;;
23670;SDS011;12012;51.998;7.614;2022-08-19T00:33:28;18.58;;;12.00;;
23670;SDS011;12012;51.998;7.614;2022-08-19T00:35:57;11.90;;;10.68;;
23670;SDS011;12012;51.998;7.614;2022-08-19T00:38:23;12.90;;;10.68;;
23670;SDS011;12012;51.998;7.614;2022-08-19T00:40:49;11.25;;;9.35;;
23670;SDS011;12012;51.998;7.614;2022-08-19T00:43:17;9.75;;;8.70;;
23670;SDS011;12012;51.998;7.614;2022-08-19T00:45:45;11.43;;;8.90;;
23670;SDS011;12012;51.998;7.614;2022-08-19T00:48:12;9.90;;;8.80;;
23670;SDS011;12012;51.998;7.614;2022-08-19T00:50:39;11.85;;;9.90;;
23670;SDS011;12012;51.998;7.614;2022-08-19T00:53:08;10.13;;;9.13;;
23670;SDS011;12012;51.998;7.614;2022-08-19T00:55:36;9.75;;;8.68;;
23670;SDS011;12012;51.998;7.614;2022-08-19T00:58:05;12.93;;;11.63;;
23670;SDS011;12012;51.998;7.614;2022-08-19T01:00:34;10.48;;;9.45;;
23670;SDS011;12012;51.998;7.614;2022-08-19T01:03:02;11.95;;;10.65;;
23670;SDS011;12012;51.998;7.614;2022-08-19T01:05:32;13.90;;;10.95;;
23670;SDS011;12012;51.998;7.614;2022-08-19T01:08:00;12.70;;;11.40;;
23670;SDS011;12012;51.998;7.614;2022-08-19T01:10:29;9.57;;;8.68;;
23670;SDS011;12012;51.998;7.614;2022-08-19T01:12:58;13.25;;;10.00;;
23670;SDS011;12012;51.998;7.614;2022-08-19T01:15:27;10.75;;;9.68;;
23670;SDS011;12012;51.998;7.614;2022-08-19T01:18:02;11.90;;;10.63;;
23670;SDS011;12012;51.998;7.614;2022-08-19T01:22:59;14.45;;;11.27;;
23670;SDS011;12012;51.998;7.614;2022-08-19T01:25:35;11.07;;;9.00;;
23670;SDS011;12012;51.998;7.614;2022-08-19T01:28:08;12.73;;;11.52;;
23670;SDS011;12012;51.998;7.614;2022-08-19T01:30:42;11.82;;;10.63;;
23670;SDS011;12012;51.998;7.614;2022-08-19T01:33:08;12.18;;;10.85;;
23670;SDS011;12012;51.998;7.614;2022-08-19T01:35:34;15.65;;;12.77;;
23670;SDS011;12012;51.998;7.614;2022-08-19T01:38:01;14.07;;;11.18;;
23670;SDS011;12012;51.998;7.614;2022-08-19T01:40:34;13.75;;;12.30;;
23670;SDS011;12012;51.998;7.614;2022-08-19T01:43:02;14.80;;;11.90;;
23670;SDS011;12012;51.998;7.614;2022-08-19T01:45:28;12.27;;;11.07;;
23670;SDS011;12012;51.998;7.614;2022-08-19T01:47:57;15.20;;;13.60;;
23670;SDS011;12012;51.998;7.614;2022-08-19T01:50:24;16.10;;;13.48;;
23670;SDS011;12012;51.998;7.614;2022-08-19T01:52:50;15.43;;;13.40;;
23670;SDS011;12012;51.998;7.614;2022-08-19T01:55:17;12.77;;;10.88;;
23670;SDS011;12012;51.998;7.614;2022-08-19T01:57:50;12.88;;;11.05;;
23670;SDS011;12012;51.998;7.614;2022-08-19T02:00:19;12.00;;;10.80;;
23670;SDS011;12012;51.998;7.614;2022-08-19T02:02:46;12.65;;;11.35;;
23670;SDS011;12012;51.998;7.614;2022-08-19T02:05:12;15.90;;;14.05;;
23670;SDS011;12012;51.998;7.614;2022-08-19T02:07:39;14.10;;;12.52;;
23670;SDS011;12012;51.998;7.614;2022-08-19T02:10:08;17.25;;;13.55;;
23670;SDS011;12012;51.998;7.614;2022-08-19T02:12:35;16.35;;;14.43;;
23670;SDS011;12012;51.998;7.614;2022-08-19T02:15:01;12.57;;;11.38;;
23670;SDS011;12012;51.998;7.614;2022-08-19T02:17:28;14.05;;;12.55;;
23670;SDS011;12012;51.998;7.614;2022-08-19T02:19:55;12.93;;;11.52;;
23670;SDS011;12012;51.998;7.614;2022-08-19T02:22:21;17.23;;;13.88;;
23670;SDS011;12012;51.998;7.614;2022-08-19T02:24:47;21.48;;;19.17;;
23670;SDS011;12012;51.998;7.614;2022-08-19T02:27:13;22.00;;;17.45;;
23670;SDS011;12012;51.998;7.614;2022-08-19T02:29:40;17.13;;;15.07;;
23670;SDS011;12012;51.998;7.614;2022-08-19T02:32:06;15.90;;;14.23;;
23670;SDS011;12012;51.998;7.614;2022-08-19T02:34:32;19.52;;;16.95;;
23670;SDS011;12012;51.998;7.614;2022-08-19T02:36:58;19.05;;;16.13;;
23670;SDS011;12012;51.998;7.614;2022-08-19T02:39:24;17.60;;;15.73;;
23670;SDS011;12012;51.998;7.614;2022-08-19T02:41:51;17.73;;;13.73;;
23670;SDS011;12012;51.998;7.614;2022-08-19T02:44:17;16.58;;;14.38;;
23670;SDS011;12012;51.998;7.614;2022-08-19T02:46:44;21.38;;;17.92;;
23670;SDS011;12012;51.998;7.614;2022-08-19T02:49:11;19.45;;;17.27;;
23670;SDS011;12012;51.998;7.614;2022-08-19T02:51:39;14.13;;;12.18;;
23670;SDS011;12012;51.998;7.614;2022-08-19T02:54:09;16.17;;;13.50;;
23670;SDS011;12012;51.998;7.614;2022-08-19T02:56:37;18.70;;;16.55;;
23670;SDS011;12012;51.998;7.614;2022-08-19T02:59:04;15.52;;;13.30;;
23670;SDS011;12012;51.998;7.614;2022-08-19T03:01:36;13.45;;;11.82;;
23670;SDS011;12012;51.998;7.614;2022-08-19T03:04:03;18.75;;;16.70;;
23670;SDS011;12012;51.998;7.614;2022-08-19T03:06:31;22.00;;;17.23;;
23670;SDS011;12012;51.998;7.614;2022-08-19T03:08:57;17.23;;;13.55;;
23670;SDS011;12012;51.998;7.614;2022-08-19T03:11:24;23.38;;;17.75;;
23670;SDS011;12012;51.998;7.614;2022-08-19T03:13:52;21.15;;;16.55;;
23670;SDS011;12012;51.998;7.614;2022-08-19T03:16:18;23.30;;;18.55;;
23670;SDS011;12012;51.998;7.614;2022-08-19T03:18:46;17.88;;;15.45;;
23670;SDS011;12012;51.998;7.614;2022-08-19T03:21:25;19.15;;;15.00;;
23670;SDS011;12012;51.998;7.614;2022-08-19T03:23:54;21.60;;;17.55;;
23670;SDS011;12012;51.998;7.614;2022-08-19T03:26:20;19.38;;;14.10;;
23670;SDS011;12012;51.998;7.614;2022-08-19T03:28:45;20.67;;;15.52;;
23670;SDS011;12012;51.998;7.614;2022-08-19T03:31:15;15.40;;;13.23;;
23670;SDS011;12012;51.998;7.614;2022-08-19T03:33:44;19.20;;;15.63;;
23670;SDS011;12012;51.998;7.614;2022-08-19T03:36:14;15.30;;;13.45;;
23670;SDS011;12012;51.998;7.614;2022-08-19T03:38:43;16.13;;;14.43;;
23670;SDS011;12012;51.998;7.614;2022-08-19T03:41:13;18.05;;;14.75;;
23670;SDS011;12012;51.998;7.614;2022-08-19T03:43:41;20.10;;;16.60;;
23670;SDS011;12012;51.998;7.614;2022-08-19T03:46:09;19.05;;;16.17;;
23670;SDS011;12012;51.998;7.614;2022-08-19T03:48:37;16.92;;;13.88;;
23670;SDS011;12012;51.998;7.614;2022-08-19T03:51:06;17.90;;;14.45;;
23670;SDS011;12012;51.998;7.614;2022-08-19T03:53:33;15.20;;;13.60;;
23670;SDS011;12012;51.998;7.614;2022-08-19T03:55:59;19.05;;;15.30;;
23670;SDS011;12012;51.998;7.614;2022-08-19T03:58:27;14.00;;;11.70;;
23670;SDS011;12012;51.998;7.614;2022-08-19T04:00:57;16.25;;;14.40;;
23670;SDS011;12012;51.998;7.614;2022-08-19T04:03:24;13.55;;;12.15;;
23670;SDS011;12012;51.998;7.614;2022-08-19T04:05:50;12.93;;;11.43;;
23670;SDS011;12012;51.998;7.614;2022-08-19T04:08:16;14.02;;;11.82;;
23670;SDS011;12012;51.998;7.614;2022-08-19T04:10:47;11.07;;;9.98;;
23670;SDS011;12012;51.998;7.614;2022-08-19T04:13:14;13.45;;;12.05;;
23670;SDS011;12012;51.998;7.614;2022-08-19T04:15:43;15.48;;;12.95;;
23670;SDS011;12012;51.998;7.614;2022-08-19T04:18:11;18.75;;;14.20;;
23670;SDS011;12012;51.998;7.614;2022-08-19T04:20:44;16.88;;;15.00;;
23670;SDS011;12012;51.998;7.614;2022-08-19T04:23:12;16.23;;;14.02;;
23670;SDS011;12012;51.998;7.614;2022-08-19T04:25:39;14.40;;;11.70;;
23670;SDS011;12012;51.998;7.614;2022-08-19T04:28:07;13.52;;;10.43;;
23670;SDS011;12012;51.998;7.614;2022-08-19T04:30:41;14.98;;;12.88;;
23670;SDS011;12012;51.998;7.614;2022-08-19T04:33:08;15.90;;;12.73;;
23670;SDS011;12012;51.998;7.614;2022-08-19T04:35:36;16.15;;;12.30;;
23670;SDS011;12012;51.998;7.614;2022-08-19T04:38:07;12.95;;;11.57;;
23670;SDS011;12012;51.998;7.614;2022-08-19T04:40:33;18.35;;;14.80;;
23670;SDS011;12012;51.998;7.614;2022-08-19T04:43:22;12.30;;;11.00;;
23670;SDS011;12012;51.998;7.614;2022-08-19T04:45:47;17.05;;;13.20;;
23670;SDS011;12012;51.998;7.614;2022-08-19T04:48:13;13.23;;;11.90;;
23670;SDS011;12012;51.998;7.614;2022-08-19T04:50:39;14.35;;;11.60;;
23670;SDS011;12012;51.998;7.614;2022-08-19T04:53:06;13.88;;;12.40;;
23670;SDS011;12012;51.998;7.614;2022-08-19T04:55:33;18.98;;;14.55;;
23670;SDS011;12012;51.998;7.614;2022-08-19T04:58:00;14.98;;;12.10;;
23670;SDS011;12012;51.998;7.614;2022-08-19T05:00:27;16.13;;;14.48;;
23670;SDS011;12012;51.998;7.614;2022-08-19T05:02:54;13.52;;;11.43;;
23670;SDS011;12012;51.998;7.614;2022-08-19T05:05:19;20.80;;;14.45;;
23670;SDS011;12012;51.998;7.614;2022-08-19T05:07:45;15.90;;;14.20;;
23670;SDS011;12012;51.998;7.614;2022-08-19T05:10:11;12.48;;;10.40;;
23670;SDS011;12012;51.998;7.614;2022-08-19T05:12:37;14.68;;;11.88;;
23670;SDS011;12012;51.998;7.614;2022-08-19T05:15:04;15.15;;;12.15;;
23670;SDS011;12012;51.998;7.614;2022-08-19T05:17:30;16.92;;;15.10;;
23670;SDS011;12012;51.998;7.614;2022-08-19T05:19:56;15.38;;;12.65;;
23670;SDS011;12012;51.998;7.614;2022-08-19T05:22:41;16.73;;;14.73;;
23670;SDS011;12012;51.998;7.614;2022-08-19T05:25:11;13.85;;;11.23;;
23670;SDS011;12012;51.998;7.614;2022-08-19T05:27:38;14.57;;;10.65;;
23670;SDS011;12012;51.998;7.614;2022-08-19T05:30:05;15.50;;;11.65;;
23670;SDS011;12012;51.998;7.614;2022-08-19T05:32:31;12.23;;;9.75;;
23670;SDS011;12012;51.998;7.614;2022-08-19T05:34:56;15.90;;;14.23;;
23670;SDS011;12012;51.998;7.614;2022-08-19T05:37:22;17.17;;;13.93;;
23670;SDS011;12012;51.998;7.614;2022-08-19T05:39:48;11.70;;;10.45;;
23670;SDS011;12012;51.998;7.614;2022-08-19T05:42:14;14.43;;;12.70;;
23670;SDS011;12012;51.998;7.614;2022-08-19T05:44:41;18.67;;;12.52;;
23670;SDS011;12012;51.998;7.614;2022-08-19T05:47:09;14.18;;;11.75;;
23670;SDS011;12012;51.998;7.614;2022-08-19T05:49:36;18.30;;;14.20;;
23670;SDS011;12012;51.998;7.614;2022-08-19T05:52:06;14.98;;;11.35;;
23670;SDS011;12012;51.998;7.614;2022-08-19T05:54:34;16.80;;;14.15;;
23670;SDS011;12012;51.998;7.614;2022-08-19T05:57:02;15.85;;;11.50;;
23670;SDS011;12012;51.998;7.614;2022-08-19T05:59:28;11.85;;;10.50;;
23670;SDS011;12012;51.998;7.614;2022-08-19T06:01:54;16.30;;;13.20;;
23670;SDS011;12012;51.998;7.614;2022-08-19T06:04:20;14.80;;;12.57;;
23670;SDS011;12012;51.998;7.614;2022-08-19T06:06:47;17.77;;;13.52;;
23670;SDS011;12012;51.998;7.614;2022-08-19T06:09:16;20.90;;;16.08;;
23670;SDS011;12012;51.998;7.614;2022-08-19T06:11:45;18.80;;;14.02;;
23670;SDS011;12012;51.998;7.614;2022-08-19T06:14:12;20.35;;;15.82;;
23670;SDS011;12012;51.998;7.614;2022-08-19T06:16:40;16.85;;;13.93;;
23670;SDS011;12012;51.998;7.614;2022-08-19T06:19:08;16.65;;;11.95;;
23670;SDS011;12012;51.998;7.614;2022-08-19T06:21:36;18.52;;;14.60;;
23670;SDS011;12012;51.998;7.614;2022-08-19T06:24:04;16.98;;;12.32;;
23670;SDS011;12012;51.998;7.614;2022-08-19T06:26:31;16.02;;;12.80;;
23670;SDS011;12012;51.998;7.614;2022-08-19T06:28:59;26.55;;;17.42;;
23670;SDS011;12012;51.998;7.614;2022-08-19T06:31:27;22.42;;;15.50;;
23670;SDS011;12012;51.998;7.614;2022-08-19T06:33:54;21.65;;;15.82;;
23670;SDS011;12012;51.998;7.614;2022-08-19T06:36:20;23.40;;;16.58;;
23670;SDS011;12012;51.998;7.614;2022-08-19T06:38:50;14.23;;;10.88;;
23670;SDS011;12012;51.998;7.614;2022-08-19T06:41:16;12.25;;;10.02;;
23670;SDS011;12012;51.998;7.614;2022-08-19T06:43:41;14.10;;;11.32;;
23670;SDS011;12012;51.998;7.614;2022-08-19T06:46:14;20.77;;;14.82;;
23670;SDS011;12012;51.998;7.614;2022-08-19T06:48:42;15.95;;;13.95;;
23670;SDS011;12012;51.998;7.614;2022-08-19T06:51:08;12.70;;;11.30;;
23670;SDS011;12012;51.998;7.614;2022-08-19T06:53:34;21.67;;;13.15;;
23670;SDS011;12012;51.998;7.614;2022-08-19T06:56:00;23.90;;;16.95;;
23670;SDS011;12012;51.998;7.614;2022-08-19T06:58:29;20.27;;;15.52;;
23670;SDS011;12012;51.998;7.614;2022-08-19T07:00:58;18.33;;;12.88;;
23670;SDS011;12012;51.998;7.614;2022-08-19T07:03:32;19.10;;;11.55;;
23670;SDS011;12012;51.998;7.614;2022-08-19T07:06:03;23.27;;;13.60;;
23670;SDS011;12012;51.998;7.614;2022-08-19T07:08:30;18.90;;;11.02;;
23670;SDS011;12012;51.998;7.614;2022-08-19T07:10:57;12.15;;;10.18;;
23670;SDS011;12012;51.998;7.614;2022-08-19T07:13:23;16.90;;;12.05;;
23670;SDS011;12012;51.998;7.614;2022-08-19T07:15:49;19.60;;;15.90;;
23670;SDS011;12012;51.998;7.614;2022-08-19T07:18:16;17.95;;;11.63;;
23670;SDS011;12012;51.998;7.614;2022-08-19T07:20:45;22.65;;;15.88;;
23670;SDS011;12012;51.998;7.614;2022-08-19T07:23:11;13.85;;;9.68;;
23670;SDS011;12012;51.998;7.614;2022-08-19T07:25:37;19.05;;;13.57;;
23670;SDS011;12012;51.998;7.614;2022-08-19T07:28:03;15.48;;;12.70;;
23670;SDS011;12012;51.998;7.614;2022-08-19T07:30:29;14.32;;;10.32;;
23670;SDS011;12012;51.998;7.614;2022-08-19T07:32:55;15.85;;;9.10;;
23670;SDS011;12012;51.998;7.614;2022-08-19T07:35:21;20.20;;;12.32;;
23670;SDS011;12012;51.998;7.614;2022-08-19T07:37:48;16.67;;;12.82;;
23670;SDS011;12012;51.998;7.614;2022-08-19T07:40:14;20.73;;;14.65;;
23670;SDS011;12012;51.998;7.614;2022-08-19T07:42:40;15.40;;;13.48;;
23670;SDS011;12012;51.998;7.614;2022-08-19T07:45:07;18.27;;;12.10;;
23670;SDS011;12012;51.998;7.614;2022-08-19T07:47:33;18.45;;;11.70;;
23670;SDS011;12012;51.998;7.614;2022-08-19T07:49:59;18.00;;;12.80;;
23670;SDS011;12012;51.998;7.614;2022-08-19T07:52:24;15.13;;;10.95;;
23670;SDS011;12012;51.998;7.614;2022-08-19T07:54:50;17.65;;;11.10;;
23670;SDS011;12012;51.998;7.614;2022-08-19T07:57:16;12.30;;;9.07;;
23670;SDS011;12012;51.998;7.614;2022-08-19T07:59:42;12.85;;;10.63;;
23670;SDS011;12012;51.998;7.614;2022-08-19T08:02:08;14.35;;;11.23;;
23670;SDS011;12012;51.998;7.614;2022-08-19T08:04:34;13.50;;;9.27;;
23670;SDS011;12012;51.998;7.614;2022-08-19T08:07:22;13.45;;;10.15;;
23670;SDS011;12012;51.998;7.614;2022-08-19T08:10:06;8.50;;;6.43;;
23670;SDS011;12012;51.998;7.614;2022-08-19T08:12:36;10.60;;;7.65;;
23670;SDS011;12012;51.998;7.614;2022-08-19T08:15:09;11.70;;;10.35;;
23670;SDS011;12012;51.998;7.614;2022-08-19T08:17:41;13.13;;;10.27;;
23670;SDS011;12012;51.998;7.614;2022-08-19T08:20:07;10.32;;;7.80;;
23670;SDS011;12012;51.998;7.614;2022-08-19T08:22:33;9.70;;;8.15;;
23670;SDS011;12012;51.998;7.614;2022-08-19T08:25:19;11.60;;;9.00;;
23670;SDS011;12012;51.998;7.614;2022-08-19T08:27:47;9.80;;;7.32;;
23670;SDS011;12012;51.998;7.614;2022-08-19T08:30:24;10.68;;;7.72;;
23670;SDS011;12012;51.998;7.614;2022-08-19T08:32:53;7.70;;;6.55;;
23670;SDS011;12012;51.998;7.614;2022-08-19T08:35:20;7.53;;;6.65;;
23670;SDS011;12012;51.998;7.614;2022-08-19T08:37:48;11.02;;;6.85;;
23670;SDS011;12012;51.998;7.614;2022-08-19T08:40:22;12.05;;;7.13;;
23670;SDS011;12012;51.998;7.614;2022-08-19T08:43:07;8.63;;;7.40;;
23670;SDS011;12012;51.998;7.614;2022-08-19T08:51:36;6.70;;;5.45;;
23670;SDS011;12012;51.998;7.614;2022-08-19T08:54:18;7.57;;;5.50;;
23670;SDS011;12012;51.998;7.614;2022-08-19T08:56:45;9.73;;;5.57;;
23670;SDS011;12012;51.998;7.614;2022-08-19T08:59:25;5.53;;;4.85;;
23670;SDS011;12012;51.998;7.614;2022-08-19T09:01:57;4.88;;;4.20;;
23670;SDS011;12012;51.998;7.614;2022-08-19T09:04:23;3.97;;;3.30;;
23670;SDS011;12012;51.998;7.614;2022-08-19T09:07:00;5.03;;;4.53;;
23670;SDS011;12012;51.998;7.614;2022-08-19T09:09:40;5.47;;;4.10;;
23670;SDS011;12012;51.998;7.614;2022-08-19T09:17:32;3.53;;;3.22;;
23670;SDS011;12012;51.998;7.614;2022-08-19T09:22:42;7.43;;;3.80;;
23670;SDS011;12012;51.998;7.614;2022-08-19T09:25:09;4.22;;;3.72;;
23670;SDS011;12012;51.998;7.614;2022-08-19T09:27:38;4.38;;;3.92;;
23670;SDS011;12012;51.998;7.614;2022-08-19T09:30:06;4.28;;;3.53;;
23670;SDS011;12012;51.998;7.614;2022-08-19T09:32:33;4.68;;;3.65;;
23670;SDS011;12012;51.998;7.614;2022-08-19T09:34:59;3.22;;;2.92;;
23670;SDS011;12012;51.998;7.614;2022-08-19T09:37:25;6.28;;;4.18;;
23670;SDS011;12012;51.998;7.614;2022-08-19T09:39:51;5.10;;;3.20;;
23670;SDS011;12012;51.998;7.614;2022-08-19T09:42:17;6.20;;;3.47;;
23670;SDS011;12012;51.998;7.614;2022-08-19T09:44:43;3.70;;;3.05;;
23670;SDS011;12012;51.998;7.614;2022-08-19T09:47:10;6.43;;;3.78;;
23670;SDS011;12012;51.998;7.614;2022-08-19T09:49:37;3.88;;;3.10;;
23670;SDS011;12012;51.998;7.614;2022-08-19T09:52:04;3.60;;;3.30;;
23670;SDS011;12012;51.998;7.614;2022-08-19T09:54:32;3.85;;;3.22;;
23670;SDS011;12012;51.998;7.614;2022-08-19T09:56:58;3.00;;;2.80;;
23670;SDS011;12012;51.998;7.614;2022-08-19T09:59:27;3.20;;;2.90;;
23670;SDS011;12012;51.998;7.614;2022-08-19T10:01:53;5.57;;;4.20;;
23670;SDS011;12012;51.998;7.614;2022-08-19T10:04:19;3.28;;;3.03;;
23670;SDS011;12012;51.998;7.614;2022-08-19T10:06:46;3.75;;;3.30;;
23670;SDS011;12012;51.998;7.614;2022-08-19T10:09:14;5.75;;;3.30;;
23670;SDS011;12012;51.998;7.614;2022-08-19T10:11:41;4.18;;;3.78;;
23670;SDS011;12012;51.998;7.614;2022-08-19T10:14:12;3.60;;;3.00;;
23670;SDS011;12012;51.998;7.614;2022-08-19T10:16:39;3.55;;;3.00;;
23670;SDS011;12012;51.998;7.614;2022-08-19T10:19:06;5.47;;;3.55;;
23670;SDS011;12012;51.998;7.614;2022-08-19T10:21:32;6.22;;;3.50;;
23670;SDS011;12012;51.998;7.614;2022-08-19T10:24:00;4.70;;;3.65;;
23670;SDS011;12012;51.998;7.614;2022-08-19T10:26:29;3.90;;;3.50;;
23670;SDS011;12012;51.998;7.614;2022-08-19T10:29:01;6.15;;;3.40;;
23670;SDS011;12012;51.998;7.614;2022-08-19T10:31:28;3.58;;;3.25;;
23670;SDS011;12012;51.998;7.614;2022-08-19T10:33:55;4.32;;;3.08;;
23670;SDS011;12012;51.998;7.614;2022-08-19T10:36:26;3.63;;;2.70;;
23670;SDS011;12012;51.998;7.614;2022-08-19T10:38:57;3.40;;;3.00;;
23670;SDS011;12012;51.998;7.614;2022-08-19T10:41:31;3.05;;;2.75;;
23670;SDS011;12012;51.998;7.614;2022-08-19T10:43:59;3.28;;;2.50;;
23670;SDS011;12012;51.998;7.614;2022-08-19T10:46:29;3.55;;;2.70;;
23670;SDS011;12012;51.998;7.614;2022-08-19T10:48:57;3.20;;;2.90;;
23670;SDS011;12012;51.998;7.614;2022-08-19T10:51:24;2.97;;;2.78;;
23670;SDS011;12012;51.998;7.614;2022-08-19T10:54:08;3.20;;;2.90;;
23670;SDS011;12012;51.998;7.614;2022-08-19T10:56:34;3.72;;;2.88;;
23670;SDS011;12012;51.998;7.614;2022-08-19T10:59:29;2.95;;;2.70;;
23670;SDS011;12012;51.998;7.614;2022-08-19T11:01:58;2.85;;;2.65;;
23670;SDS011;12012;51.998;7.614;2022-08-19T11:04:25;3.33;;;3.03;;
23670;SDS011;12012;51.998;7.614;2022-08-19T11:06:51;6.78;;;3.33;;
23670;SDS011;12012;51.998;7.614;2022-08-19T11:09:18;2.92;;;2.65;;
23670;SDS011;12012;51.998;7.614;2022-08-19T11:11:46;2.78;;;2.58;;
23670;SDS011;12012;51.998;7.614;2022-08-19T11:14:14;5.38;;;2.97;;
23670;SDS011;12012;51.998;7.614;2022-08-19T11:16:41;2.75;;;2.50;;
23670;SDS011;12012;51.998;7.614;2022-08-19T11:19:08;2.70;;;2.22;;
23670;SDS011;12012;51.998;7.614;2022-08-19T11:21:36;3.15;;;2.80;;
23670;SDS011;12012;51.998;7.614;2022-08-19T11:24:05;4.50;;;3.08;;
23670;SDS011;12012;51.998;7.614;2022-08-19T11:26:33;3.17;;;2.88;;
23670;SDS011;12012;51.998;7.614;2022-08-19T11:29:00;3.30;;;3.00;;
23670;SDS011;12012;51.998;7.614;2022-08-19T11:31:28;3.95;;;3.05;;
23670;SDS011;12012;51.998;7.614;2022-08-19T11:33:57;4.20;;;3.15;;
23670;SDS011;12012;51.998;7.614;2022-08-19T11:36:24;4.05;;;2.75;;
23670;SDS011;12012;51.998;7.614;2022-08-19T11:38:51;3.25;;;2.92;;
23670;SDS011;12012;51.998;7.614;2022-08-19T11:41:18;3.78;;;3.10;;
23670;SDS011;12012;51.998;7.614;2022-08-19T11:43:46;3.30;;;2.53;;
23670;SDS011;12012;51.998;7.614;2022-08-19T11:46:13;3.80;;;2.95;;
23670;SDS011;12012;51.998;7.614;2022-08-19T11:48:39;3.92;;;2.83;;
23670;SDS011;12012;51.998;7.614;2022-08-19T11:51:06;2.92;;;2.70;;
23670;SDS011;12012;51.998;7.614;2022-08-19T11:53:34;3.60;;;3.10;;
23670;SDS011;12012;51.998;7.614;2022-08-19T11:56:00;3.55;;;3.05;;
23670;SDS011;12012;51.998;7.614;2022-08-19T11:58:26;3.92;;;3.53;;
23670;SDS011;12012;51.998;7.614;2022-08-19T12:00:52;5.70;;;4.10;;
23670;SDS011;12012;51.998;7.614;2022-08-19T12:03:17;8.35;;;4.70;;
23670;SDS011;12012;51.998;7.614;2022-08-19T12:05:44;5.10;;;4.60;;
23670;SDS011;12012;51.998;7.614;2022-08-19T12:08:10;4.22;;;3.83;;
23670;SDS011;12012;51.998;7.614;2022-08-19T12:10:38;5.95;;;4.72;;
23670;SDS011;12012;51.998;7.614;2022-08-19T12:13:05;9.38;;;4.90;;
23670;SDS011;12012;51.998;7.614;2022-08-19T12:15:35;10.50;;;4.82;;
23670;SDS011;12012;51.998;7.614;2022-08-19T12:18:02;6.93;;;4.57;;
23670;SDS011;12012;51.998;7.614;2022-08-19T12:20:28;7.43;;;6.20;;
23670;SDS011;12012;51.998;7.614;2022-08-19T12:22:54;6.82;;;6.22;;
23670;SDS011;12012;51.998;7.614;2022-08-19T12:25:19;5.82;;;5.22;;
23670;SDS011;12012;51.998;7.614;2022-08-19T12:27:46;6.60;;;5.13;;
23670;SDS011;12012;51.998;7.614;2022-08-19T12:30:12;7.95;;;6.53;;
23670;SDS011;12012;51.998;7.614;2022-08-19T12:32:38;4.90;;;4.50;;
23670;SDS011;12012;51.998;7.614;2022-08-19T12:35:05;5.95;;;5.32;;
23670;SDS011;12012;51.998;7.614;2022-08-19T12:37:32;5.28;;;4.85;;
23670;SDS011;12012;51.998;7.614;2022-08-19T12:39:57;5.82;;;4.88;;
23670;SDS011;12012;51.998;7.614;2022-08-19T12:42:23;6.47;;;5.88;;
23670;SDS011;12012;51.998;7.614;2022-08-19T12:44:49;5.00;;;4.60;;
23670;SDS011;12012;51.998;7.614;2022-08-19T12:47:16;4.80;;;4.40;;
23670;SDS011;12012;51.998;7.614;2022-08-19T12:49:42;4.72;;;4.32;;
23670;SDS011;12012;51.998;7.614;2022-08-19T12:52:09;5.43;;;4.75;;
23670;SDS011;12012;51.998;7.614;2022-08-19T12:54:36;6.07;;;4.88;;
23670;SDS011;12012;51.998;7.614;2022-08-19T12:57:05;4.70;;;4.40;;
23670;SDS011;12012;51.998;7.614;2022-08-19T12:59:32;5.20;;;4.20;;
23670;SDS011;12012;51.998;7.614;2022-08-19T13:02:02;4.03;;;3.63;;
23670;SDS011;12012;51.998;7.614;2022-08-19T13:04:30;4.30;;;3.90;;
23670;SDS011;12012;51.998;7.614;2022-08-19T13:06:56;4.32;;;3.90;;
23670;SDS011;12012;51.998;7.614;2022-08-19T13:09:23;4.32;;;3.50;;
23670;SDS011;12012;51.998;7.614;2022-08-19T13:11:48;3.45;;;3.25;;
23670;SDS011;12012;51.998;7.614;2022-08-19T13:14:14;3.80;;;3.50;;
23670;SDS011;12012;51.998;7.614;2022-08-19T13:16:39;4.00;;;3.60;;
23670;SDS011;12012;51.998;7.614;2022-08-19T13:19:06;5.53;;;3.42;;
23670;SDS011;12012;51.998;7.614;2022-08-19T13:21:32;4.38;;;3.42;;
23670;SDS011;12012;51.998;7.614;2022-08-19T13:23:58;4.18;;;3.78;;
23670;SDS011;12012;51.998;7.614;2022-08-19T13:26:24;6.18;;;4.50;;
23670;SDS011;12012;51.998;7.614;2022-08-19T13:28:49;5.55;;;4.20;;
23670;SDS011;12012;51.998;7.614;2022-08-19T13:31:34;4.05;;;3.75;;
23670;SDS011;12012;51.998;7.614;2022-08-19T13:34:31;4.85;;;4.20;;
23670;SDS011;12012;51.998;7.614;2022-08-19T13:36:58;4.65;;;4.25;;
23670;SDS011;12012;51.998;7.614;2022-08-19T13:39:25;5.00;;;4.50;;
23670;SDS011;12012;51.998;7.614;2022-08-19T13:41:51;4.82;;;4.40;;
23670;SDS011;12012;51.998;7.614;2022-08-19T13:44:17;4.63;;;4.20;;
23670;SDS011;12012;51.998;7.614;2022-08-19T13:46:43;5.35;;;4.53;;
23670;SDS011;12012;51.998;7.614;2022-08-19T13:49:10;6.85;;;4.78;;
23670;SDS011;12012;51.998;7.614;2022-08-19T13:51:40;5.30;;;4.10;;
23670;SDS011;12012;51.998;7.614;2022-08-19T13:54:07;4.82;;;4.15;;
23670;SDS011;12012;51.998;7.614;2022-08-19T13:56:35;4.38;;;3.97;;
23670;SDS011;12012;51.998;7.614;2022-08-19T13:59:05;4.50;;;4.20;;
23670;SDS011;12012;51.998;7.614;2022-08-19T14:01:30;4.57;;;4.28;;
23670;SDS011;12012;51.998;7.614;2022-08-19T14:03:56;3.97;;;3.58;;
23670;SDS011;12012;51.998;7.614;2022-08-19T14:06:21;4.25;;;3.95;;
23670;SDS011;12012;51.998;7.614;2022-08-19T14:08:47;4.35;;;4.00;;
23670;SDS011;12012;51.998;7.614;2022-08-19T14:11:13;5.03;;;4.15;;
23670;SDS011;12012;51.998;7.614;2022-08-19T14:13:40;6.03;;;4.05;;
23670;SDS011;12012;51.998;7.614;2022-08-19T14:16:09;6.72;;;4.85;;
23670;SDS011;12012;51.998;7.614;2022-08-19T14:18:36;7.72;;;3.97;;
23670;SDS011;12012;51.998;7.614;2022-08-19T14:21:02;5.47;;;4.97;;
23670;SDS011;12012;51.998;7.614;2022-08-19T14:23:29;5.07;;;4.60;;
23670;SDS011;12012;51.998;7.614;2022-08-19T14:26:09;5.82;;;4.90;;
23670;SDS011;12012;51.998;7.614;2022-08-19T14:28:38;6.60;;;4.47;;
23670;SDS011;12012;51.998;7.614;2022-08-19T14:31:06;6.32;;;5.70;;
23670;SDS011;12012;51.998;7.614;2022-08-19T14:33:43;6.20;;;5.00;;
23670;SDS011;12012;51.998;7.614;2022-08-19T14:36:09;5.82;;;5.30;;
23670;SDS011;12012;51.998;7.614;2022-08-19T14:38:35;5.47;;;4.88;;
23670;SDS011;12012;51.998;7.614;2022-08-19T14:41:08;4.78;;;4.25;;
23670;SDS011;12012;51.998;7.614;2022-08-19T14:43:36;4.35;;;3.95;;
23670;SDS011;12012;51.998;7.614;2022-08-19T14:46:01;5.63;;;5.03;;
23670;SDS011;12012;51.998;7.614;2022-08-19T14:48:27;6.90;;;4.43;;
23670;SDS011;12012;51.998;7.614;2022-08-19T14:50:53;5.22;;;4.78;;
23670;SDS011;12012;51.998;7.614;2022-08-19T14:53:18;5.18;;;4.60;;
23670;SDS011;12012;51.998;7.614;2022-08-19T14:55:45;5.53;;;5.03;;